createdAt,value
2018-05-21T00:01:55.932Z,99696.05
2018-05-21T00:04:23.552Z,99701.59
2018-05-21T00:06:51.199Z,99699.05
2018-05-21T00:09:18.792Z,99697.31
2018-05-21T00:11:46.488Z,99702.23
2018-05-21T00:14:14.474Z,99704.21
2018-05-21T00:16:44.116Z,99712.67
2018-05-21T00:19:11.730Z,99712.25
2018-05-21T00:21:39.473Z,99715.81
2018-05-21T00:24:07.063Z,99711.48
2018-05-21T00:26:34.708Z,99717.83
2018-05-21T00:29:02.529Z,99711.40
2018-05-21T00:31:30.222Z,99709.13
2018-05-21T00:33:57.957Z,99710.34
2018-05-21T00:36:28.886Z,99715.63
2018-05-21T00:39:00.993Z,99715.61
2018-05-21T00:41:31.833Z,99714.42
2018-05-21T00:43:59.608Z,99705.41
2018-05-21T00:46:33.545Z,99714.27
2018-05-21T00:49:01.249Z,99708.92
2018-05-21T00:51:28.893Z,99711.80
2018-05-21T00:53:56.834Z,99706.04
2018-05-21T00:56:24.465Z,99706.80
2018-05-21T00:58:52.099Z,99707.79
2018-05-21T01:01:19.848Z,99707.17
2018-05-21T01:03:50.704Z,99705.62
2018-05-21T01:06:18.473Z,99707.18
2018-05-21T01:08:46.572Z,99701.11
2018-05-21T01:11:14.240Z,99704.20
2018-05-21T01:13:42.348Z,99708.09
2018-05-21T01:16:10.032Z,99710.05
2018-05-21T01:18:37.620Z,99707.51
2018-05-21T01:21:05.331Z,99713.92
2018-05-21T01:23:33.163Z,99720.14
2018-05-21T01:26:00.856Z,99720.62
2018-05-21T01:28:28.475Z,99722.33
2018-05-21T01:30:56.331Z,99721.77
2018-05-21T01:33:24.053Z,99717.88
2018-05-21T01:35:51.699Z,99716.83
2018-05-21T01:38:19.833Z,99713.80
2018-05-21T01:40:47.439Z,99715.68
2018-05-21T01:43:15.071Z,99715.26
2018-05-21T01:45:42.888Z,99719.83
2018-05-21T01:48:10.556Z,99714.05
2018-05-21T01:50:38.235Z,99719.09
2018-05-21T01:53:06.056Z,99718.20
2018-05-21T01:55:33.891Z,99722.66
2018-05-21T01:58:05.399Z,99727.37
2018-05-21T02:00:33.152Z,99731.39
2018-05-21T02:03:00.881Z,99728.30
2018-05-21T02:05:28.492Z,99725.73
2018-05-21T02:07:56.677Z,99726.67
2018-05-21T02:10:24.269Z,99729.22
2018-05-21T02:12:55.183Z,99727.07
2018-05-21T02:15:23.059Z,99730.61
2018-05-21T02:17:50.697Z,99727.93
2018-05-21T02:20:18.371Z,99729.83
2018-05-21T02:22:46.183Z,99725.21
2018-05-21T02:25:13.837Z,99731.63
2018-05-21T02:27:41.512Z,99728.30
2018-05-21T02:30:09.219Z,99731.96
2018-05-21T02:32:40.361Z,99728.17
2018-05-21T02:35:07.995Z,99735.39
2018-05-21T02:37:35.833Z,99727.50
2018-05-21T02:40:03.610Z,99736.31
2018-05-21T02:42:31.202Z,99734.73
2018-05-21T02:45:00.372Z,99735.16
2018-05-21T02:47:27.984Z,99737.31
2018-05-21T02:49:55.592Z,99742.80
2018-05-21T02:52:40.789Z,99740.48
2018-05-21T02:55:08.521Z,99740.22
2018-05-21T02:57:36.203Z,99736.92
2018-05-21T03:00:03.897Z,99735.15
2018-05-21T03:02:31.509Z,99739.46
2018-05-21T03:04:59.178Z,99741.78
2018-05-21T03:07:33.480Z,99739.95
2018-05-21T03:10:04.555Z,99741.09
2018-05-21T03:12:32.175Z,99740.88
2018-05-21T03:14:59.853Z,99745.01
2018-05-21T03:17:27.535Z,99741.84
2018-05-21T03:19:55.157Z,99751.53
2018-05-21T03:22:23.336Z,99743.92
2018-05-21T03:24:51.072Z,99752.34
2018-05-21T03:27:18.722Z,99759.23
2018-05-21T03:29:46.427Z,99759.31
2018-05-21T03:32:14.073Z,99765.19
2018-05-21T03:34:41.819Z,99764.58
2018-05-21T03:37:09.613Z,99762.36
2018-05-21T03:39:37.215Z,99767.63
2018-05-21T03:42:05.922Z,99765.21
2018-05-21T03:44:34.116Z,99774.76
2018-05-21T03:47:01.854Z,99774.77
2018-05-21T03:49:29.911Z,99777.30
2018-05-21T03:51:57.793Z,99773.83
2018-05-21T03:54:26.522Z,99772.25
2018-05-21T03:56:54.179Z,99778.63
2018-05-21T03:59:33.889Z,99781.50
2018-05-21T04:02:13.156Z,99784.72
2018-05-21T04:04:40.922Z,99785.66
2018-05-21T04:07:09.544Z,99787.35
2018-05-21T04:09:37.202Z,99788.48
2018-05-21T04:12:05.326Z,99788.55
2018-05-21T04:14:36.606Z,99795.80
2018-05-21T04:17:04.256Z,99789.22
2018-05-21T04:19:31.955Z,99783.22
2018-05-21T04:21:59.631Z,99791.22
2018-05-21T04:24:27.291Z,99792.63
2018-05-21T04:26:54.991Z,99793.17
2018-05-21T04:29:23.651Z,99792.15
2018-05-21T04:31:55.456Z,99798.23
2018-05-21T04:34:23.090Z,99797.02
2018-05-21T04:36:50.694Z,99795.70
2018-05-21T04:39:18.325Z,99794.25
2018-05-21T04:41:45.959Z,99808.70
2018-05-21T04:44:13.635Z,99807.79
2018-05-21T04:46:41.348Z,99806.45
2018-05-21T04:49:08.933Z,99810.63
2018-05-21T04:51:36.628Z,99815.33
2018-05-21T04:54:11.786Z,99818.59
2018-05-21T04:56:39.524Z,99818.78
2018-05-21T04:59:07.200Z,99822.16
2018-05-21T05:01:34.944Z,99817.33
2018-05-21T05:04:06.429Z,99819.20
2018-05-21T05:06:37.291Z,99818.18
2018-05-21T05:09:04.994Z,99815.83
2018-05-21T05:11:38.327Z,99825.20
2018-05-21T05:14:06.097Z,99825.56
2018-05-21T05:16:38.111Z,99814.28
2018-05-21T05:19:06.023Z,99818.98
2018-05-21T05:21:37.151Z,99819.81
2018-05-21T05:24:10.763Z,99823.44
2018-05-21T05:26:38.515Z,99826.83
2018-05-21T05:29:06.131Z,99821.03
2018-05-21T05:31:40.375Z,99823.51
2018-05-21T05:34:07.948Z,99833.52
2018-05-21T05:36:35.652Z,99835.95
2018-05-21T05:39:03.499Z,99826.10
2018-05-21T05:41:31.243Z,99824.41
2018-05-21T05:43:59.876Z,99822.30
2018-05-21T05:46:31.476Z,99823.25
2018-05-21T05:49:11.644Z,99820.25
2018-05-21T05:51:40.267Z,99817.87
2018-05-21T05:54:10.952Z,99817.66
2018-05-21T05:56:38.644Z,99825.42
2018-05-21T05:59:06.504Z,99827.39
2018-05-21T06:01:34.370Z,99833.33
2018-05-21T06:04:02.049Z,99836.11
2018-05-21T06:06:33.896Z,99837.41
2018-05-21T06:09:01.662Z,99840.09
2018-05-21T06:11:35.505Z,99836.44
2018-05-21T06:14:06.440Z,99826.56
2018-05-21T06:16:34.048Z,99832.47
2018-05-21T06:19:05.409Z,99824.29
2018-05-21T06:21:36.141Z,99820.91
2018-05-21T06:24:03.784Z,99823.43
2018-05-21T06:26:31.616Z,99835.22
2018-05-21T06:28:59.310Z,99835.68
2018-05-21T06:31:27.009Z,99825.83
2018-05-21T06:34:01.898Z,99831.13
2018-05-21T06:36:29.645Z,99833.67
2018-05-21T06:39:00.767Z,99829.73
2018-05-21T06:41:28.953Z,99829.66
2018-05-21T06:43:56.586Z,99831.48
2018-05-21T06:46:30.208Z,99829.36
2018-05-21T06:48:57.807Z,99823.25
2018-05-21T06:51:33.892Z,99824.51
2018-05-21T06:54:01.521Z,99822.10
2018-05-21T06:56:29.166Z,99832.20
2018-05-21T06:59:03.019Z,99831.48
2018-05-21T07:01:36.810Z,99837.06
2018-05-21T07:04:28.041Z,99835.41
2018-05-21T07:07:08.396Z,99838.05
2018-05-21T07:09:36.050Z,99838.52
2018-05-21T07:12:07.594Z,99841.59
2018-05-21T07:14:41.008Z,99845.72
2018-05-21T07:17:11.853Z,99845.91
2018-05-21T07:19:39.561Z,99835.55
2018-05-21T07:22:08.409Z,99834.22
2018-05-21T07:24:36.078Z,99837.95
2018-05-21T07:27:03.757Z,99827.68
2018-05-21T07:29:31.412Z,99833.81
2018-05-21T07:31:59.083Z,99822.78
2018-05-21T07:34:27.733Z,99824.45
2018-05-21T07:36:55.441Z,99818.58
2018-05-21T07:39:26.123Z,99814.28
2018-05-21T07:41:53.749Z,99815.41
2018-05-21T07:44:23.335Z,99812.22
2018-05-21T07:46:54.435Z,99815.06
2018-05-21T07:49:22.062Z,99818.25
2018-05-21T07:51:49.758Z,99824.09
2018-05-21T07:54:17.372Z,99824.37
2018-05-21T07:56:45.009Z,99823.75
2018-05-21T07:59:12.873Z,99822.23
2018-05-21T08:01:40.542Z,99822.62
2018-05-21T08:04:08.174Z,99818.73
2018-05-21T08:06:35.936Z,99823.89
2018-05-21T08:09:03.676Z,99820.77
2018-05-21T08:11:31.402Z,99815.27
2018-05-21T08:13:59.235Z,99811.98
2018-05-21T08:16:26.962Z,99813.22
2018-05-21T08:18:54.687Z,99804.23
2018-05-21T08:21:22.722Z,99803.31
2018-05-21T08:23:50.315Z,99803.63
2018-05-21T08:26:17.965Z,99804.80
2018-05-21T08:28:45.678Z,99800.77
2018-05-21T08:31:19.552Z,99805.88
2018-05-21T08:33:48.304Z,99802.16
2018-05-21T08:36:16.034Z,99804.48
2018-05-21T08:38:43.656Z,99806.63
2018-05-21T08:41:11.467Z,99796.66
2018-05-21T08:43:39.225Z,99798.51
2018-05-21T08:46:06.988Z,99791.70
2018-05-21T08:48:35.109Z,99785.95
2018-05-21T08:51:03.698Z,99781.88
2018-05-21T08:53:31.596Z,99781.67
2018-05-21T08:55:59.475Z,99779.70
2018-05-21T08:58:27.196Z,99788.41
2018-05-21T09:00:54.918Z,99790.23
2018-05-21T09:03:26.079Z,99782.39
2018-05-21T09:05:56.977Z,99787.53
2018-05-21T09:08:24.721Z,99782.84
2018-05-21T09:10:52.618Z,99784.62
2018-05-21T09:13:20.643Z,99781.47
2018-05-21T09:15:48.393Z,99769.94
2018-05-21T09:18:20.186Z,99765.70
2018-05-21T09:20:47.808Z,99770.80
2018-05-21T09:23:15.459Z,99762.43
2018-05-21T09:25:43.115Z,99768.52
2018-05-21T09:28:10.734Z,99771.31
2018-05-21T09:30:38.384Z,99761.80
2018-05-21T09:33:06.173Z,99757.83
2018-05-21T09:35:40.836Z,99749.58
2018-05-21T09:38:09.131Z,99743.63
2018-05-21T09:43:36.541Z,99739.05
2018-05-21T09:46:08.157Z,99740.73
2018-05-21T09:48:37.096Z,99737.51
2018-05-21T09:51:05.971Z,99738.95
2018-05-21T09:53:34.118Z,99738.27
2018-05-21T09:56:01.885Z,99739.61
2018-05-21T09:58:30.657Z,99738.11
2018-05-21T10:00:59.618Z,99730.44
2018-05-21T10:03:29.536Z,99728.85
2018-05-21T10:05:57.575Z,99730.71
2018-05-21T10:11:10.564Z,99734.17
2018-05-21T10:13:38.244Z,99734.22
2018-05-21T10:16:07.389Z,99729.30
2018-05-21T10:18:35.253Z,99732.50
2018-05-21T10:21:02.948Z,99728.42
2018-05-21T10:23:31.661Z,99720.81
2018-05-21T10:25:59.397Z,99719.48
2018-05-21T10:28:26.964Z,99715.00
2018-05-21T10:30:58.029Z,99709.09
2018-05-21T10:33:26.263Z,99709.86
2018-05-21T10:35:54.028Z,99704.83
2018-05-21T10:38:22.732Z,99706.94
2018-05-21T10:40:53.754Z,99714.67
2018-05-21T10:43:21.422Z,99718.22
2018-05-21T10:45:49.122Z,99703.95
2018-05-21T10:48:16.933Z,99706.15
2018-05-21T10:50:44.639Z,99706.65
2018-05-21T10:53:12.283Z,99699.61
2018-05-21T10:55:40.138Z,99688.55
2018-05-21T10:58:07.841Z,99690.45
2018-05-21T11:00:35.493Z,99686.81
2018-05-21T11:03:08.241Z,99683.36
2018-05-21T11:05:35.949Z,99684.34
2018-05-21T11:08:03.586Z,99681.22
2018-05-21T11:10:31.414Z,99675.39
2018-05-21T11:12:59.072Z,99670.45
2018-05-21T11:15:26.797Z,99676.18
2018-05-21T11:17:55.893Z,99675.30
2018-05-21T11:20:24.573Z,99666.88
2018-05-21T11:22:58.995Z,99674.88
2018-05-21T11:25:27.609Z,99663.16
2018-05-21T11:27:55.271Z,99670.92
2018-05-21T11:30:23.440Z,99665.89
2018-05-21T11:32:52.554Z,99660.56
2018-05-21T11:35:35.528Z,99651.11
2018-05-21T11:38:10.240Z,99641.58
2018-05-21T11:40:38.153Z,99639.55
2018-05-21T11:43:05.827Z,99644.30
2018-05-21T11:45:33.463Z,99641.03
2018-05-21T11:48:01.630Z,99644.72
2018-05-21T11:50:29.183Z,99627.67
2018-05-21T11:53:09.317Z,99625.38
2018-05-21T11:58:14.797Z,99619.87
2018-05-21T12:00:48.159Z,99623.12
2018-05-21T12:03:15.894Z,99624.12
2018-05-21T12:05:43.539Z,99627.06
2018-05-21T12:08:18.429Z,99613.22
2018-05-21T12:10:46.104Z,99612.25
2018-05-21T12:13:13.833Z,99606.95
2018-05-21T12:15:45.961Z,99608.33
2018-05-21T12:18:17.881Z,99608.20
2018-05-21T12:20:47.649Z,99602.25
2018-05-21T12:23:15.227Z,99598.26
2018-05-21T12:25:47.023Z,99590.41
2018-05-21T12:28:15.084Z,99602.13
2018-05-21T12:30:42.825Z,99596.82
2018-05-21T12:33:18.496Z,99585.08
2018-05-21T12:35:46.094Z,99587.49
2018-05-21T12:38:14.773Z,99589.50
2018-05-21T12:40:44.510Z,99581.40
2018-05-21T12:43:12.068Z,99573.70
2018-05-21T12:45:39.750Z,99573.77
2018-05-21T12:48:07.418Z,99564.91
2018-05-21T12:50:35.108Z,99559.13
2018-05-21T12:53:03.548Z,99560.40
2018-05-21T12:55:37.595Z,99555.38
2018-05-21T12:58:14.487Z,99547.28
2018-05-21T13:00:45.834Z,99544.09
2018-05-21T13:03:19.467Z,99547.39
2018-05-21T13:05:47.150Z,99550.36
2018-05-21T13:08:14.745Z,99555.64
2018-05-21T13:10:42.319Z,99552.31
2018-05-21T13:13:10.080Z,99542.23
2018-05-21T13:15:41.590Z,99545.98
2018-05-21T13:18:09.282Z,99543.09
2018-05-21T13:20:37.031Z,99541.01
2018-05-21T13:23:04.656Z,99546.09
2018-05-21T13:25:35.555Z,99540.41
2018-05-21T13:28:09.156Z,99535.91
2018-05-21T13:30:40.895Z,99536.34
2018-05-21T13:33:15.955Z,99539.00
2018-05-21T13:35:43.680Z,99532.84
2018-05-21T13:38:12.812Z,99534.33
2018-05-21T13:40:40.574Z,99535.83
2018-05-21T13:43:08.413Z,99532.91
2018-05-21T13:45:36.555Z,99537.59
2018-05-21T13:48:29.833Z,99534.31
2018-05-21T13:50:57.585Z,99532.95
2018-05-21T13:53:37.861Z,99538.66
2018-05-21T13:56:06.534Z,99528.86
2018-05-21T13:58:35.182Z,99529.01
2018-05-21T14:01:06.872Z,99530.64
2018-05-21T14:06:29.169Z,99527.38
2018-05-21T14:08:56.818Z,99529.59
2018-05-21T14:11:24.474Z,99532.78
2018-05-21T14:13:52.157Z,99522.84
2018-05-21T14:16:20.966Z,99521.96
2018-05-21T14:18:58.621Z,99520.88
2018-05-21T14:21:31.229Z,99524.14
2018-05-21T14:24:07.138Z,99522.08
2018-05-21T14:26:34.943Z,99521.54
2018-05-21T14:29:16.866Z,99519.58
2018-05-21T14:31:44.744Z,99521.06
2018-05-21T14:34:23.690Z,99517.48
2018-05-21T14:36:51.376Z,99522.10
2018-05-21T14:39:19.301Z,99519.19
2018-05-21T14:41:47.363Z,99521.22
2018-05-21T14:44:15.058Z,99515.90
2018-05-21T14:46:51.664Z,99518.83
2018-05-21T14:49:19.353Z,99513.59
2018-05-21T14:51:46.994Z,99511.63
2018-05-21T14:54:15.044Z,99507.46
2018-05-21T14:56:42.800Z,99504.63
2018-05-21T14:59:17.023Z,99507.76
2018-05-21T15:01:44.625Z,99506.99
2018-05-21T15:04:13.351Z,99511.98
2018-05-21T15:06:41.216Z,99512.39
2018-05-21T15:09:08.783Z,99519.20
2018-05-21T15:11:36.442Z,99522.58
2018-05-21T15:14:04.536Z,99519.33
2018-05-21T15:16:32.180Z,99524.82
2018-05-21T15:18:59.839Z,99529.95
2018-05-21T15:21:27.654Z,99530.97
2018-05-21T15:23:55.365Z,99520.00
2018-05-21T15:26:23.055Z,99524.62
2018-05-21T15:28:55.396Z,99513.91
2018-05-21T15:31:23.042Z,99513.09
2018-05-21T15:33:50.663Z,99513.68
2018-05-21T15:36:18.537Z,99510.84
2018-05-21T15:38:46.208Z,99516.76
2018-05-21T15:41:13.880Z,99516.23
2018-05-21T15:43:42.594Z,99514.34
2018-05-21T15:46:10.222Z,99512.95
2018-05-21T15:48:37.931Z,99518.73
2018-05-21T15:51:05.583Z,99518.36
2018-05-21T15:53:33.170Z,99519.75
2018-05-21T15:56:00.878Z,99513.95
2018-05-21T15:58:28.574Z,99518.81
2018-05-21T16:00:56.322Z,99514.16
2018-05-21T16:03:24.257Z,99514.28
2018-05-21T16:05:52.461Z,99522.14
2018-05-21T16:08:20.207Z,99525.45
2018-05-21T16:10:47.823Z,99522.56
2018-05-21T16:13:15.469Z,99523.09
2018-05-21T16:15:43.638Z,99519.70
2018-05-21T16:18:11.227Z,99519.89
2018-05-21T16:20:38.899Z,99527.16
2018-05-21T16:23:06.831Z,99529.78
2018-05-21T16:25:34.420Z,99526.39
2018-05-21T16:28:02.031Z,99522.85
2018-05-21T16:30:29.742Z,99526.91
2018-05-21T16:32:57.385Z,99527.73
2018-05-21T16:35:25.102Z,99536.19
2018-05-21T16:37:52.823Z,99538.38
2018-05-21T16:40:20.412Z,99531.98
2018-05-21T16:42:47.999Z,99533.67
2018-05-21T16:45:15.737Z,99531.05
2018-05-21T16:47:43.603Z,99536.36
2018-05-21T16:50:11.157Z,99538.22
2018-05-21T16:52:39.048Z,99531.61
2018-05-21T16:55:06.731Z,99532.97
2018-05-21T16:57:34.379Z,99533.75
2018-05-21T17:00:02.067Z,99532.60
2018-05-21T17:02:29.660Z,99538.00
2018-05-21T17:04:57.315Z,99542.84
2018-05-21T17:07:25.221Z,99542.67
2018-05-21T17:09:52.903Z,99538.95
2018-05-21T17:12:20.554Z,99541.43
2018-05-21T17:14:48.386Z,99547.75
2018-05-21T17:17:16.074Z,99555.00
2018-05-21T17:19:43.768Z,99556.61
2018-05-21T17:22:11.429Z,99556.41
2018-05-21T17:24:39.045Z,99557.53
2018-05-21T17:27:06.737Z,99556.27
2018-05-21T17:29:34.397Z,99559.83
2018-05-21T17:32:02.036Z,99567.16
2018-05-21T17:34:29.710Z,99570.83
2018-05-21T17:36:57.861Z,99566.23
2018-05-21T17:39:25.548Z,99572.34
2018-05-21T17:41:53.288Z,99578.50
2018-05-21T17:44:21.108Z,99585.23
2018-05-21T17:46:48.772Z,99579.88
2018-05-21T17:49:16.434Z,99590.22
2018-05-21T17:51:44.190Z,99585.33
2018-05-21T17:54:11.818Z,99583.50
2018-05-21T17:56:39.436Z,99581.33
2018-05-21T17:59:07.128Z,99586.84
2018-05-21T18:01:34.771Z,99584.90
2018-05-21T18:04:02.429Z,99586.00
2018-05-21T18:06:30.127Z,99591.73
2018-05-21T18:08:57.801Z,99595.34
2018-05-21T18:11:25.361Z,99589.90
2018-05-21T18:13:53.119Z,99594.06
2018-05-21T18:16:20.807Z,99598.58
2018-05-21T18:18:48.552Z,99602.52
2018-05-21T18:21:16.477Z,99611.72
2018-05-21T18:23:45.015Z,99609.06
2018-05-21T18:26:12.945Z,99620.17
2018-05-21T18:28:41.048Z,99616.30
2018-05-21T18:31:08.625Z,99611.91
2018-05-21T18:33:36.342Z,99619.96
2018-05-21T18:36:04.161Z,99614.67
2018-05-21T18:38:31.814Z,99617.38
2018-05-21T18:40:59.487Z,99617.48
2018-05-21T18:43:27.760Z,99615.33
2018-05-21T18:45:55.376Z,99622.27
2018-05-21T18:48:23.090Z,99619.39
2018-05-21T18:50:51.216Z,99623.41
2018-05-21T18:53:20.896Z,99631.08
2018-05-21T18:55:48.481Z,99635.47
2018-05-21T18:58:16.304Z,99631.09
2018-05-21T19:00:43.899Z,99634.55
2018-05-21T19:03:11.499Z,99636.20
2018-05-21T19:05:39.236Z,99643.19
2018-05-21T19:08:06.834Z,99649.48
2018-05-21T19:10:34.495Z,99653.39
2018-05-21T19:13:02.169Z,99662.16
2018-05-21T19:15:29.800Z,99667.38
2018-05-21T19:17:57.484Z,99676.83
2018-05-21T19:20:25.180Z,99681.39
2018-05-21T19:22:52.767Z,99678.84
2018-05-21T19:25:20.556Z,99684.09
2018-05-21T19:27:48.358Z,99688.23
2018-05-21T19:30:16.582Z,99695.05
2018-05-21T19:32:44.258Z,99690.31
2018-05-21T19:35:11.982Z,99694.34
2018-05-21T19:37:39.600Z,99699.97
2018-05-21T19:40:07.212Z,99703.33
2018-05-21T19:42:35.229Z,99700.30
2018-05-21T19:45:02.973Z,99711.45
2018-05-21T19:47:30.608Z,99710.16
2018-05-21T19:49:58.497Z,99712.06
2018-05-21T19:52:26.191Z,99714.95
2018-05-21T19:54:53.807Z,99711.32
2018-05-21T19:57:21.487Z,99717.31
2018-05-21T19:59:55.400Z,99728.01
2018-05-21T20:02:29.417Z,99721.77
2018-05-21T20:05:04.440Z,99724.53
2018-05-21T20:07:32.428Z,99716.63
2018-05-21T20:10:01.161Z,99702.28
2018-05-21T20:12:29.786Z,99698.49
2018-05-21T20:14:57.546Z,99708.94
2018-05-21T20:17:25.340Z,99712.51
2018-05-21T20:19:52.987Z,99725.99
2018-05-21T20:22:20.635Z,99719.56
2018-05-21T20:24:48.236Z,99715.56
2018-05-21T20:27:15.950Z,99710.20
2018-05-21T20:29:43.569Z,99716.41
2018-05-21T20:32:11.276Z,99706.88
2018-05-21T20:34:39.023Z,99712.31
2018-05-21T20:37:06.737Z,99716.24
2018-05-21T20:39:34.401Z,99723.00
2018-05-21T20:42:02.563Z,99723.70
2018-05-21T20:44:30.155Z,99727.92
2018-05-21T20:46:57.780Z,99733.97
2018-05-21T20:49:25.872Z,99734.75
2018-05-21T20:51:53.503Z,99742.09
2018-05-21T20:54:21.190Z,99741.47
2018-05-21T20:56:48.877Z,99743.09
2018-05-21T20:59:16.528Z,99751.72
2018-05-21T21:01:44.156Z,99756.98
2018-05-21T21:04:11.990Z,99755.80
2018-05-21T21:06:39.648Z,99756.59
2018-05-21T21:09:07.328Z,99756.23
2018-05-21T21:11:35.162Z,99753.66
2018-05-21T21:14:02.892Z,99754.19
2018-05-21T21:16:30.641Z,99760.38
2018-05-21T21:18:58.468Z,99754.09
2018-05-21T21:21:26.092Z,99760.57
2018-05-21T21:23:53.876Z,99762.83
2018-05-21T21:26:21.819Z,99772.48
2018-05-21T21:28:54.337Z,99767.37
2018-05-21T21:31:22.016Z,99776.59
2018-05-21T21:33:49.642Z,99780.73
2018-05-21T21:36:17.281Z,99782.02
2018-05-21T21:38:45.105Z,99777.08
2018-05-21T21:41:12.839Z,99778.19
2018-05-21T21:43:40.481Z,99782.77
2018-05-21T21:46:08.317Z,99787.20
2018-05-21T21:48:36.007Z,99791.73
2018-05-21T21:51:03.648Z,99789.80
2018-05-21T21:53:31.843Z,99796.20
2018-05-21T21:55:59.431Z,99794.14
2018-05-21T21:58:27.096Z,99794.49
2018-05-21T22:01:01.173Z,99795.64
2018-05-21T22:03:35.101Z,99790.06
2018-05-21T22:06:02.770Z,99787.25
2018-05-21T22:08:30.396Z,99793.54
2018-05-21T22:10:58.091Z,99789.95
2018-05-21T22:13:25.751Z,99794.09
2018-05-21T22:15:53.356Z,99794.75
2018-05-21T22:18:21.054Z,99796.06
2018-05-21T22:20:48.714Z,99804.25
2018-05-21T22:23:16.362Z,99807.55
2018-05-21T22:25:44.033Z,99805.78
2018-05-21T22:28:14.995Z,99800.38
2018-05-21T22:30:42.601Z,99798.58
2018-05-21T22:33:11.317Z,99794.27
2018-05-21T22:35:38.979Z,99793.95
2018-05-21T22:38:06.620Z,99795.42
2018-05-21T22:40:35.322Z,99785.19
2018-05-21T22:43:03.120Z,99776.88
2018-05-21T22:45:30.955Z,99785.83
2018-05-21T22:47:59.634Z,99787.80
2018-05-21T22:50:27.584Z,99787.80
2018-05-21T22:52:55.354Z,99790.31
2018-05-21T22:55:23.092Z,99794.42
2018-05-21T22:57:50.746Z,99789.47
2018-05-21T23:00:18.411Z,99786.72
2018-05-21T23:05:20.213Z,99792.52
2018-05-21T23:07:47.915Z,99792.32
2018-05-21T23:10:15.598Z,99797.34
2018-05-21T23:12:43.497Z,99787.04
2018-05-21T23:15:11.103Z,99794.92
2018-05-21T23:17:38.778Z,99799.36
2018-05-21T23:20:06.585Z,99799.31
2018-05-21T23:22:45.115Z,99790.51
2018-05-21T23:25:12.817Z,99791.28
2018-05-21T23:27:40.876Z,99793.17
2018-05-21T23:30:08.528Z,99793.67
2018-05-21T23:32:36.380Z,99781.03
2018-05-21T23:35:04.070Z,99785.53
2018-05-21T23:37:35.199Z,99792.19
2018-05-21T23:40:03.008Z,99797.33
2018-05-21T23:42:30.706Z,99795.95
2018-05-21T23:44:58.371Z,99793.83
2018-05-21T23:47:26.558Z,99797.33
2018-05-21T23:49:54.159Z,99793.75
2018-05-21T23:52:21.787Z,99794.77
2018-05-21T23:54:49.452Z,99793.52
2018-05-21T23:57:17.084Z,99785.08
2018-05-21T23:59:44.734Z,99786.30
